sensor_id;sensor_type;location;lat;lon;timestamp;P1;durP1;ratioP1;P2;durP2;ratioP2
31004;SDS011;17676;52.254;4.490;2023-01-19T00:01:14;7.03;;;0.30;;
31004;SDS011;17676;52.254;4.490;2023-01-19T00:03:39;3.73;;;1.20;;
31004;SDS011;17676;52.254;4.490;2023-01-19T00:06:05;8.07;;;0.30;;
31004;SDS011;17676;52.254;4.490;2023-01-19T00:08:39;6.03;;;0.40;;
31004;SDS011;17676;52.254;4.490;2023-01-19T00:11:04;10.33;;;0.20;;
31004;SDS011;17676;52.254;4.490;2023-01-19T00:13:31;11.83;;;0.37;;
31004;SDS011;17676;52.254;4.490;2023-01-19T00:15:56;10.27;;;0.40;;
31004;SDS011;17676;52.254;4.490;2023-01-19T00:18:22;10.03;;;1.17;;
31004;SDS011;17676;52.254;4.490;2023-01-19T00:20:47;6.27;;;0.80;;
31004;SDS011;17676;52.254;4.490;2023-01-19T00:23:13;9.03;;;0.83;;
31004;SDS011;17676;52.254;4.490;2023-01-19T00:25:39;6.90;;;0.47;;
31004;SDS011;17676;52.254;4.490;2023-01-19T00:28:08;10.60;;;1.17;;
31004;SDS011;17676;52.254;4.490;2023-01-19T00:30:36;11.10;;;1.13;;
31004;SDS011;17676;52.254;4.490;2023-01-19T00:33:02;9.40;;;0.53;;
31004;SDS011;17676;52.254;4.490;2023-01-19T00:35:27;11.83;;;0.73;;
31004;SDS011;17676;52.254;4.490;2023-01-19T00:37:54;9.67;;;0.20;;
31004;SDS011;17676;52.254;4.490;2023-01-19T00:40:20;10.73;;;0.50;;
31004;SDS011;17676;52.254;4.490;2023-01-19T00:42:46;9.57;;;0.70;;
31004;SDS011;17676;52.254;4.490;2023-01-19T00:45:26;6.73;;;0.40;;
31004;SDS011;17676;52.254;4.490;2023-01-19T00:48:00;15.40;;;0.93;;
31004;SDS011;17676;52.254;4.490;2023-01-19T00:50:34;9.00;;;0.50;;
31004;SDS011;17676;52.254;4.490;2023-01-19T00:53:01;11.43;;;0.60;;
31004;SDS011;17676;52.254;4.490;2023-01-19T00:55:30;6.70;;;0.30;;
31004;SDS011;17676;52.254;4.490;2023-01-19T00:58:00;7.53;;;0.50;;
31004;SDS011;17676;52.254;4.490;2023-01-19T01:00:31;11.40;;;0.57;;
31004;SDS011;17676;52.254;4.490;2023-01-19T01:02:58;10.27;;;0.47;;
31004;SDS011;17676;52.254;4.490;2023-01-19T01:05:23;7.17;;;0.40;;
31004;SDS011;17676;52.254;4.490;2023-01-19T01:08:01;6.70;;;0.47;;
31004;SDS011;17676;52.254;4.490;2023-01-19T01:10:27;6.47;;;0.40;;
31004;SDS011;17676;52.254;4.490;2023-01-19T01:12:59;7.90;;;0.23;;
31004;SDS011;17676;52.254;4.490;2023-01-19T01:15:27;14.47;;;0.50;;
31004;SDS011;17676;52.254;4.490;2023-01-19T01:17:53;8.27;;;0.70;;
31004;SDS011;17676;52.254;4.490;2023-01-19T01:20:20;6.07;;;0.40;;
31004;SDS011;17676;52.254;4.490;2023-01-19T01:22:48;12.73;;;0.37;;
31004;SDS011;17676;52.254;4.490;2023-01-19T01:25:15;10.13;;;1.07;;
31004;SDS011;17676;52.254;4.490;2023-01-19T01:27:41;11.13;;;0.40;;
31004;SDS011;17676;52.254;4.490;2023-01-19T01:30:11;17.50;;;0.60;;
31004;SDS011;17676;52.254;4.490;2023-01-19T01:32:38;10.60;;;0.57;;
31004;SDS011;17676;52.254;4.490;2023-01-19T01:35:03;8.80;;;0.40;;
31004;SDS011;17676;52.254;4.490;2023-01-19T01:37:29;9.27;;;0.30;;
31004;SDS011;17676;52.254;4.490;2023-01-19T01:39:54;24.90;;;0.80;;
31004;SDS011;17676;52.254;4.490;2023-01-19T01:42:23;12.90;;;0.70;;
31004;SDS011;17676;52.254;4.490;2023-01-19T01:44:53;10.63;;;0.40;;
31004;SDS011;17676;52.254;4.490;2023-01-19T01:49:53;6.27;;;0.30;;
31004;SDS011;17676;52.254;4.490;2023-01-19T01:52:35;9.27;;;0.57;;
31004;SDS011;17676;52.254;4.490;2023-01-19T01:55:03;12.40;;;0.30;;
31004;SDS011;17676;52.254;4.490;2023-01-19T01:57:31;13.87;;;0.70;;
31004;SDS011;17676;52.254;4.490;2023-01-19T01:59:58;8.87;;;0.27;;
31004;SDS011;17676;52.254;4.490;2023-01-19T02:02:24;16.93;;;1.00;;
31004;SDS011;17676;52.254;4.490;2023-01-19T02:05:10;10.63;;;0.30;;
31004;SDS011;17676;52.254;4.490;2023-01-19T02:07:45;14.10;;;0.93;;
31004;SDS011;17676;52.254;4.490;2023-01-19T02:10:32;11.77;;;0.30;;
31004;SDS011;17676;52.254;4.490;2023-01-19T02:13:17;22.00;;;0.87;;
31004;SDS011;17676;52.254;4.490;2023-01-19T02:15:55;15.13;;;1.17;;
31004;SDS011;17676;52.254;4.490;2023-01-19T02:18:22;13.13;;;0.97;;
31004;SDS011;17676;52.254;4.490;2023-01-19T02:23:19;10.60;;;1.37;;
31004;SDS011;17676;52.254;4.490;2023-01-19T02:25:46;10.57;;;0.50;;
31004;SDS011;17676;52.254;4.490;2023-01-19T02:28:12;7.03;;;0.50;;
31004;SDS011;17676;52.254;4.490;2023-01-19T02:30:39;7.73;;;0.30;;
31004;SDS011;17676;52.254;4.490;2023-01-19T02:33:05;6.27;;;0.73;;
31004;SDS011;17676;52.254;4.490;2023-01-19T02:35:31;12.00;;;0.67;;
31004;SDS011;17676;52.254;4.490;2023-01-19T02:37:56;7.93;;;0.40;;
31004;SDS011;17676;52.254;4.490;2023-01-19T02:40:23;11.47;;;1.70;;
31004;SDS011;17676;52.254;4.490;2023-01-19T02:42:51;6.80;;;0.30;;
31004;SDS011;17676;52.254;4.490;2023-01-19T02:45:18;8.30;;;0.40;;
31004;SDS011;17676;52.254;4.490;2023-01-19T02:47:45;8.73;;;0.30;;
31004;SDS011;17676;52.254;4.490;2023-01-19T02:52:56;19.70;;;2.37;;
31004;SDS011;17676;52.254;4.490;2023-01-19T02:55:25;19.17;;;1.33;;
31004;SDS011;17676;52.254;4.490;2023-01-19T02:57:58;22.20;;;1.97;;
31004;SDS011;17676;52.254;4.490;2023-01-19T03:03:28;21.90;;;1.07;;
31004;SDS011;17676;52.254;4.490;2023-01-19T03:18:08;20.43;;;1.20;;
31004;SDS011;17676;52.254;4.490;2023-01-19T03:20:34;19.43;;;1.00;;
31004;SDS011;17676;52.254;4.490;2023-01-19T03:23:04;18.57;;;0.80;;
31004;SDS011;17676;52.254;4.490;2023-01-19T03:25:32;19.20;;;1.23;;
31004;SDS011;17676;52.254;4.490;2023-01-19T03:27:58;10.10;;;1.13;;
31004;SDS011;17676;52.254;4.490;2023-01-19T03:30:28;21.42;;;3.03;;
31004;SDS011;17676;52.254;4.490;2023-01-19T03:32:59;18.93;;;1.20;;
31004;SDS011;17676;52.254;4.490;2023-01-19T03:35:27;21.13;;;1.77;;
31004;SDS011;17676;52.254;4.490;2023-01-19T03:37:54;22.73;;;1.08;;
31004;SDS011;17676;52.254;4.490;2023-01-19T03:40:22;16.80;;;0.80;;
31004;SDS011;17676;52.254;4.490;2023-01-19T03:42:49;13.17;;;1.33;;
31004;SDS011;17676;52.254;4.490;2023-01-19T03:45:14;19.20;;;1.67;;
31004;SDS011;17676;52.254;4.490;2023-01-19T03:47:39;13.00;;;1.40;;
31004;SDS011;17676;52.254;4.490;2023-01-19T03:50:06;14.00;;;0.50;;
31004;SDS011;17676;52.254;4.490;2023-01-19T03:52:33;15.63;;;1.07;;
31004;SDS011;17676;52.254;4.490;2023-01-19T03:54:59;10.13;;;0.90;;
31004;SDS011;17676;52.254;4.490;2023-01-19T03:57:25;19.30;;;1.27;;
31004;SDS011;17676;52.254;4.490;2023-01-19T03:59:51;22.83;;;1.35;;
31004;SDS011;17676;52.254;4.490;2023-01-19T04:02:17;16.93;;;0.70;;
31004;SDS011;17676;52.254;4.490;2023-01-19T04:04:42;12.87;;;0.57;;
31004;SDS011;17676;52.254;4.490;2023-01-19T04:07:09;13.60;;;1.60;;
31004;SDS011;17676;52.254;4.490;2023-01-19T04:09:35;22.07;;;2.10;;
31004;SDS011;17676;52.254;4.490;2023-01-19T04:12:00;17.53;;;1.10;;
31004;SDS011;17676;52.254;4.490;2023-01-19T04:14:26;17.87;;;1.43;;
31004;SDS011;17676;52.254;4.490;2023-01-19T04:16:51;16.47;;;1.13;;
31004;SDS011;17676;52.254;4.490;2023-01-19T04:19:17;21.50;;;2.13;;
31004;SDS011;17676;52.254;4.490;2023-01-19T04:21:42;20.00;;;1.50;;
31004;SDS011;17676;52.254;4.490;2023-01-19T04:24:08;27.43;;;2.90;;
31004;SDS011;17676;52.254;4.490;2023-01-19T04:26:34;24.37;;;1.63;;
31004;SDS011;17676;52.254;4.490;2023-01-19T04:28:59;20.70;;;1.23;;
31004;SDS011;17676;52.254;4.490;2023-01-19T04:31:25;18.08;;;1.30;;
31004;SDS011;17676;52.254;4.490;2023-01-19T04:33:50;17.92;;;1.73;;
31004;SDS011;17676;52.254;4.490;2023-01-19T04:36:15;19.10;;;1.67;;
31004;SDS011;17676;52.254;4.490;2023-01-19T04:38:43;15.20;;;0.90;;
31004;SDS011;17676;52.254;4.490;2023-01-19T04:41:10;19.05;;;1.45;;
31004;SDS011;17676;52.254;4.490;2023-01-19T04:43:36;21.03;;;1.10;;
31004;SDS011;17676;52.254;4.490;2023-01-19T04:46:01;15.80;;;1.80;;
31004;SDS011;17676;52.254;4.490;2023-01-19T04:48:27;21.80;;;1.50;;
31004;SDS011;17676;52.254;4.490;2023-01-19T04:50:52;18.97;;;1.67;;
31004;SDS011;17676;52.254;4.490;2023-01-19T04:53:18;16.02;;;1.02;;
31004;SDS011;17676;52.254;4.490;2023-01-19T04:55:43;17.77;;;0.80;;
31004;SDS011;17676;52.254;4.490;2023-01-19T04:58:09;13.43;;;1.17;;
31004;SDS011;17676;52.254;4.490;2023-01-19T05:00:34;12.15;;;0.70;;
31004;SDS011;17676;52.254;4.490;2023-01-19T05:03:00;15.93;;;0.77;;
31004;SDS011;17676;52.254;4.490;2023-01-19T05:05:25;17.02;;;1.17;;
31004;SDS011;17676;52.254;4.490;2023-01-19T05:07:51;18.03;;;1.17;;
31004;SDS011;17676;52.254;4.490;2023-01-19T05:10:16;15.93;;;1.23;;
31004;SDS011;17676;52.254;4.490;2023-01-19T05:12:42;19.57;;;1.23;;
31004;SDS011;17676;52.254;4.490;2023-01-19T05:15:08;15.00;;;1.00;;
31004;SDS011;17676;52.254;4.490;2023-01-19T05:17:34;12.95;;;0.75;;
31004;SDS011;17676;52.254;4.490;2023-01-19T05:20:00;12.83;;;1.27;;
31004;SDS011;17676;52.254;4.490;2023-01-19T05:22:28;17.13;;;0.90;;
31004;SDS011;17676;52.254;4.490;2023-01-19T05:24:53;14.07;;;0.73;;
31004;SDS011;17676;52.254;4.490;2023-01-19T05:27:19;19.63;;;0.93;;
31004;SDS011;17676;52.254;4.490;2023-01-19T05:29:44;12.50;;;0.87;;
31004;SDS011;17676;52.254;4.490;2023-01-19T05:32:09;8.57;;;0.40;;
31004;SDS011;17676;52.254;4.490;2023-01-19T05:34:34;18.57;;;1.07;;
31004;SDS011;17676;52.254;4.490;2023-01-19T05:37:01;11.52;;;0.50;;
31004;SDS011;17676;52.254;4.490;2023-01-19T05:39:26;13.20;;;0.70;;
31004;SDS011;17676;52.254;4.490;2023-01-19T05:41:52;14.40;;;1.10;;
31004;SDS011;17676;52.254;4.490;2023-01-19T05:44:17;14.10;;;0.70;;
31004;SDS011;17676;52.254;4.490;2023-01-19T05:46:43;11.52;;;0.65;;
31004;SDS011;17676;52.254;4.490;2023-01-19T05:49:08;12.50;;;0.82;;
31004;SDS011;17676;52.254;4.490;2023-01-19T05:51:34;9.63;;;0.50;;
31004;SDS011;17676;52.254;4.490;2023-01-19T05:54:08;14.93;;;0.90;;
31004;SDS011;17676;52.254;4.490;2023-01-19T05:56:34;13.47;;;0.80;;
31004;SDS011;17676;52.254;4.490;2023-01-19T05:59:00;15.13;;;1.00;;
31004;SDS011;17676;52.254;4.490;2023-01-19T06:01:26;16.50;;;0.47;;
31004;SDS011;17676;52.254;4.490;2023-01-19T06:03:51;11.67;;;0.77;;
31004;SDS011;17676;52.254;4.490;2023-01-19T06:06:17;13.13;;;0.63;;
31004;SDS011;17676;52.254;4.490;2023-01-19T06:08:43;9.60;;;0.63;;
31004;SDS011;17676;52.254;4.490;2023-01-19T06:11:08;8.43;;;0.60;;
31004;SDS011;17676;52.254;4.490;2023-01-19T06:13:34;12.70;;;0.60;;
31004;SDS011;17676;52.254;4.490;2023-01-19T06:16:00;10.83;;;0.90;;
31004;SDS011;17676;52.254;4.490;2023-01-19T06:18:25;12.53;;;0.53;;
31004;SDS011;17676;52.254;4.490;2023-01-19T06:20:51;7.20;;;0.43;;
31004;SDS011;17676;52.254;4.490;2023-01-19T06:23:27;11.00;;;0.60;;
31004;SDS011;17676;52.254;4.490;2023-01-19T06:25:53;12.70;;;0.60;;
31004;SDS011;17676;52.254;4.490;2023-01-19T06:28:19;17.00;;;1.20;;
31004;SDS011;17676;52.254;4.490;2023-01-19T06:30:48;5.03;;;0.47;;
31004;SDS011;17676;52.254;4.490;2023-01-19T06:33:14;12.13;;;0.40;;
31004;SDS011;17676;52.254;4.490;2023-01-19T06:35:43;12.60;;;0.60;;
31004;SDS011;17676;52.254;4.490;2023-01-19T06:38:11;13.53;;;1.03;;
31004;SDS011;17676;52.254;4.490;2023-01-19T06:40:41;11.67;;;0.57;;
31004;SDS011;17676;52.254;4.490;2023-01-19T06:43:06;9.18;;;0.50;;
31004;SDS011;17676;52.254;4.490;2023-01-19T06:45:32;12.13;;;0.70;;
31004;SDS011;17676;52.254;4.490;2023-01-19T06:47:59;13.00;;;1.70;;
31004;SDS011;17676;52.254;4.490;2023-01-19T06:50:24;15.13;;;0.80;;
31004;SDS011;17676;52.254;4.490;2023-01-19T06:52:50;5.67;;;0.70;;
31004;SDS011;17676;52.254;4.490;2023-01-19T06:55:16;7.90;;;0.70;;
31004;SDS011;17676;52.254;4.490;2023-01-19T06:57:42;11.57;;;0.50;;
31004;SDS011;17676;52.254;4.490;2023-01-19T07:00:08;9.73;;;0.43;;
31004;SDS011;17676;52.254;4.490;2023-01-19T07:02:35;10.23;;;0.50;;
31004;SDS011;17676;52.254;4.490;2023-01-19T07:05:01;11.10;;;0.43;;
31004;SDS011;17676;52.254;4.490;2023-01-19T07:07:26;9.80;;;0.63;;
31004;SDS011;17676;52.254;4.490;2023-01-19T07:09:51;9.03;;;0.73;;
31004;SDS011;17676;52.254;4.490;2023-01-19T07:12:16;12.50;;;0.63;;
31004;SDS011;17676;52.254;4.490;2023-01-19T07:14:42;11.97;;;0.60;;
31004;SDS011;17676;52.254;4.490;2023-01-19T07:17:07;15.00;;;0.80;;
31004;SDS011;17676;52.254;4.490;2023-01-19T07:19:33;10.30;;;1.60;;
31004;SDS011;17676;52.254;4.490;2023-01-19T07:21:59;9.33;;;0.53;;
31004;SDS011;17676;52.254;4.490;2023-01-19T07:24:25;12.53;;;0.60;;
31004;SDS011;17676;52.254;4.490;2023-01-19T07:26:50;12.87;;;0.80;;
31004;SDS011;17676;52.254;4.490;2023-01-19T07:29:16;7.17;;;0.50;;
31004;SDS011;17676;52.254;4.490;2023-01-19T07:31:43;6.17;;;0.30;;
31004;SDS011;17676;52.254;4.490;2023-01-19T07:34:09;10.40;;;1.10;;
31004;SDS011;17676;52.254;4.490;2023-01-19T07:36:34;9.73;;;0.70;;
31004;SDS011;17676;52.254;4.490;2023-01-19T07:39:00;11.73;;;0.63;;
31004;SDS011;17676;52.254;4.490;2023-01-19T07:41:25;12.50;;;0.50;;
31004;SDS011;17676;52.254;4.490;2023-01-19T07:43:50;10.83;;;0.40;;
31004;SDS011;17676;52.254;4.490;2023-01-19T07:46:16;14.57;;;0.63;;
31004;SDS011;17676;52.254;4.490;2023-01-19T07:48:42;14.73;;;0.50;;
31004;SDS011;17676;52.254;4.490;2023-01-19T07:51:08;16.03;;;0.60;;
31004;SDS011;17676;52.254;4.490;2023-01-19T07:53:36;9.27;;;0.43;;
31004;SDS011;17676;52.254;4.490;2023-01-19T07:56:05;7.47;;;0.40;;
31004;SDS011;17676;52.254;4.490;2023-01-19T07:58:31;15.57;;;0.60;;
31004;SDS011;17676;52.254;4.490;2023-01-19T08:00:57;6.60;;;0.60;;
31004;SDS011;17676;52.254;4.490;2023-01-19T08:03:22;12.40;;;1.37;;
31004;SDS011;17676;52.254;4.490;2023-01-19T08:05:51;15.27;;;0.80;;
31004;SDS011;17676;52.254;4.490;2023-01-19T08:08:17;7.03;;;0.87;;
31004;SDS011;17676;52.254;4.490;2023-01-19T08:10:42;8.80;;;0.30;;
31004;SDS011;17676;52.254;4.490;2023-01-19T08:13:08;11.80;;;0.53;;
31004;SDS011;17676;52.254;4.490;2023-01-19T08:15:34;9.83;;;0.30;;
31004;SDS011;17676;52.254;4.490;2023-01-19T08:18:02;6.07;;;0.27;;
31004;SDS011;17676;52.254;4.490;2023-01-19T08:20:33;8.27;;;0.30;;
31004;SDS011;17676;52.254;4.490;2023-01-19T08:25:40;8.13;;;0.50;;
31004;SDS011;17676;52.254;4.490;2023-01-19T08:28:11;6.50;;;0.30;;
31004;SDS011;17676;52.254;4.490;2023-01-19T08:36:43;8.95;;;0.30;;
31004;SDS011;17676;52.254;4.490;2023-01-19T08:39:09;10.05;;;0.20;;
31004;SDS011;17676;52.254;4.490;2023-01-19T08:41:36;6.82;;;0.38;;
31004;SDS011;17676;52.254;4.490;2023-01-19T08:44:01;7.47;;;0.40;;
31004;SDS011;17676;52.254;4.490;2023-01-19T08:46:28;6.13;;;0.20;;
31004;SDS011;17676;52.254;4.490;2023-01-19T08:48:54;14.32;;;0.47;;
31004;SDS011;17676;52.254;4.490;2023-01-19T08:51:19;9.93;;;0.50;;
31004;SDS011;17676;52.254;4.490;2023-01-19T08:53:46;7.40;;;0.50;;
31004;SDS011;17676;52.254;4.490;2023-01-19T08:56:11;4.65;;;0.20;;
31004;SDS011;17676;52.254;4.490;2023-01-19T08:58:40;5.57;;;0.20;;
31004;SDS011;17676;52.254;4.490;2023-01-19T09:01:06;3.60;;;0.30;;
31004;SDS011;17676;52.254;4.490;2023-01-19T09:03:33;5.68;;;0.40;;
31004;SDS011;17676;52.254;4.490;2023-01-19T09:06:00;10.52;;;0.68;;
31004;SDS011;17676;52.254;4.490;2023-01-19T09:08:31;4.47;;;0.20;;
31004;SDS011;17676;52.254;4.490;2023-01-19T09:11:01;4.43;;;0.30;;
31004;SDS011;17676;52.254;4.490;2023-01-19T09:13:41;7.22;;;0.30;;
31004;SDS011;17676;52.254;4.490;2023-01-19T09:16:08;8.13;;;0.20;;
31004;SDS011;17676;52.254;4.490;2023-01-19T09:18:40;4.53;;;0.40;;
31004;SDS011;17676;52.254;4.490;2023-01-19T09:21:05;5.77;;;0.10;;
31004;SDS011;17676;52.254;4.490;2023-01-19T09:23:32;5.90;;;0.20;;
31004;SDS011;17676;52.254;4.490;2023-01-19T09:25:58;8.70;;;0.60;;
31004;SDS011;17676;52.254;4.490;2023-01-19T09:28:25;2.97;;;0.10;;
31004;SDS011;17676;52.254;4.490;2023-01-19T09:30:50;3.10;;;0.60;;
31004;SDS011;17676;52.254;4.490;2023-01-19T09:33:16;6.40;;;0.40;;
31004;SDS011;17676;52.254;4.490;2023-01-19T09:35:43;4.35;;;0.30;;
31004;SDS011;17676;52.254;4.490;2023-01-19T09:38:08;7.50;;;0.20;;
31004;SDS011;17676;52.254;4.490;2023-01-19T09:40:46;5.95;;;0.20;;
31004;SDS011;17676;52.254;4.490;2023-01-19T09:45:51;8.98;;;0.35;;
31004;SDS011;17676;52.254;4.490;2023-01-19T09:51:03;5.32;;;0.65;;
31004;SDS011;17676;52.254;4.490;2023-01-19T09:53:37;4.03;;;0.40;;
31004;SDS011;17676;52.254;4.490;2023-01-19T09:56:03;6.18;;;0.22;;
31004;SDS011;17676;52.254;4.490;2023-01-19T09:58:29;5.80;;;0.30;;
31004;SDS011;17676;52.254;4.490;2023-01-19T10:00:56;6.95;;;0.30;;
31004;SDS011;17676;52.254;4.490;2023-01-19T10:03:23;6.38;;;0.43;;
31004;SDS011;17676;52.254;4.490;2023-01-19T10:05:57;7.93;;;0.30;;
31004;SDS011;17676;52.254;4.490;2023-01-19T10:11:14;3.58;;;0.20;;
31004;SDS011;17676;52.254;4.490;2023-01-19T10:13:43;9.82;;;0.25;;
31004;SDS011;17676;52.254;4.490;2023-01-19T10:18:46;10.13;;;0.30;;
31004;SDS011;17676;52.254;4.490;2023-01-19T10:21:32;9.55;;;0.45;;
31004;SDS011;17676;52.254;4.490;2023-01-19T10:24:00;4.97;;;0.52;;
31004;SDS011;17676;52.254;4.490;2023-01-19T10:26:31;5.15;;;0.20;;
31004;SDS011;17676;52.254;4.490;2023-01-19T10:29:01;3.83;;;0.30;;
31004;SDS011;17676;52.254;4.490;2023-01-19T10:31:27;8.50;;;0.20;;
31004;SDS011;17676;52.254;4.490;2023-01-19T10:33:54;8.88;;;0.50;;
31004;SDS011;17676;52.254;4.490;2023-01-19T10:36:27;3.78;;;0.20;;
31004;SDS011;17676;52.254;4.490;2023-01-19T10:38:53;4.70;;;0.38;;
31004;SDS011;17676;52.254;4.490;2023-01-19T10:41:20;3.67;;;0.50;;
31004;SDS011;17676;52.254;4.490;2023-01-19T10:43:48;4.70;;;0.20;;
31004;SDS011;17676;52.254;4.490;2023-01-19T10:46:19;6.50;;;0.20;;
31004;SDS011;17676;52.254;4.490;2023-01-19T10:48:46;6.57;;;0.20;;
31004;SDS011;17676;52.254;4.490;2023-01-19T10:51:12;2.13;;;0.20;;
31004;SDS011;17676;52.254;4.490;2023-01-19T10:53:38;7.93;;;0.30;;
31004;SDS011;17676;52.254;4.490;2023-01-19T10:56:12;8.93;;;0.38;;
31004;SDS011;17676;52.254;4.490;2023-01-19T10:58:38;8.85;;;0.20;;
31004;SDS011;17676;52.254;4.490;2023-01-19T11:01:11;6.70;;;0.30;;
31004;SDS011;17676;52.254;4.490;2023-01-19T11:03:37;4.63;;;0.57;;
31004;SDS011;17676;52.254;4.490;2023-01-19T11:06:35;6.40;;;0.50;;
31004;SDS011;17676;52.254;4.490;2023-01-19T11:11:48;3.42;;;0.30;;
31004;SDS011;17676;52.254;4.490;2023-01-19T11:14:19;3.63;;;0.30;;
31004;SDS011;17676;52.254;4.490;2023-01-19T11:16:46;5.40;;;0.20;;
31004;SDS011;17676;52.254;4.490;2023-01-19T11:19:19;3.55;;;0.50;;
31004;SDS011;17676;52.254;4.490;2023-01-19T11:21:44;5.05;;;0.38;;
31004;SDS011;17676;52.254;4.490;2023-01-19T11:24:10;4.38;;;0.38;;
31004;SDS011;17676;52.254;4.490;2023-01-19T11:26:42;5.28;;;0.20;;
31004;SDS011;17676;52.254;4.490;2023-01-19T11:29:15;6.78;;;0.30;;
31004;SDS011;17676;52.254;4.490;2023-01-19T11:31:41;3.50;;;0.20;;
31004;SDS011;17676;52.254;4.490;2023-01-19T11:39:45;1.50;;;0.13;;
31004;SDS011;17676;52.254;4.490;2023-01-19T11:42:11;3.60;;;0.20;;
31004;SDS011;17676;52.254;4.490;2023-01-19T11:44:40;4.15;;;0.40;;
31004;SDS011;17676;52.254;4.490;2023-01-19T11:54:53;3.03;;;0.20;;
31004;SDS011;17676;52.254;4.490;2023-01-19T11:57:19;3.55;;;0.30;;
31004;SDS011;17676;52.254;4.490;2023-01-19T11:59:45;4.43;;;0.20;;
31004;SDS011;17676;52.254;4.490;2023-01-19T12:02:31;5.00;;;0.47;;
31004;SDS011;17676;52.254;4.490;2023-01-19T12:12:13;6.28;;;0.30;;
31004;SDS011;17676;52.254;4.490;2023-01-19T12:20:48;2.15;;;0.20;;
31004;SDS011;17676;52.254;4.490;2023-01-19T12:32:34;5.25;;;0.50;;
31004;SDS011;17676;52.254;4.490;2023-01-19T12:35:02;4.35;;;0.40;;
31004;SDS011;17676;52.254;4.490;2023-01-19T12:37:34;6.40;;;0.63;;
31004;SDS011;17676;52.254;4.490;2023-01-19T12:43:12;4.38;;;0.30;;
31004;SDS011;17676;52.254;4.490;2023-01-19T13:05:15;3.27;;;0.20;;
31004;SDS011;17676;52.254;4.490;2023-01-19T13:13:24;4.37;;;0.30;;
31004;SDS011;17676;52.254;4.490;2023-01-19T13:15:50;4.00;;;0.43;;
31004;SDS011;17676;52.254;4.490;2023-01-19T13:18:16;3.78;;;0.20;;
31004;SDS011;17676;52.254;4.490;2023-01-19T13:20:49;4.23;;;0.20;;
31004;SDS011;17676;52.254;4.490;2023-01-19T13:23:26;3.10;;;0.20;;
31004;SDS011;17676;52.254;4.490;2023-01-19T13:25:52;3.15;;;0.43;;
31004;SDS011;17676;52.254;4.490;2023-01-19T13:28:19;4.23;;;0.10;;
31004;SDS011;17676;52.254;4.490;2023-01-19T13:30:51;3.53;;;0.20;;
31004;SDS011;17676;52.254;4.490;2023-01-19T13:33:21;5.10;;;0.10;;
31004;SDS011;17676;52.254;4.490;2023-01-19T13:35:50;3.57;;;0.23;;
31004;SDS011;17676;52.254;4.490;2023-01-19T13:38:17;2.60;;;0.20;;
31004;SDS011;17676;52.254;4.490;2023-01-19T13:40:42;4.83;;;0.20;;
31004;SDS011;17676;52.254;4.490;2023-01-19T13:43:18;1.90;;;0.30;;
31004;SDS011;17676;52.254;4.490;2023-01-19T13:45:46;5.22;;;0.20;;
31004;SDS011;17676;52.254;4.490;2023-01-19T13:48:13;3.28;;;0.45;;
31004;SDS011;17676;52.254;4.490;2023-01-19T13:50:40;3.10;;;0.13;;
31004;SDS011;17676;52.254;4.490;2023-01-19T13:53:19;3.33;;;0.15;;
31004;SDS011;17676;52.254;4.490;2023-01-19T13:55:45;3.85;;;0.50;;
31004;SDS011;17676;52.254;4.490;2023-01-19T13:58:21;6.60;;;0.60;;
31004;SDS011;17676;52.254;4.490;2023-01-19T14:00:47;2.40;;;0.30;;
31004;SDS011;17676;52.254;4.490;2023-01-19T14:03:17;4.60;;;0.75;;
31004;SDS011;17676;52.254;4.490;2023-01-19T14:05:48;2.63;;;0.20;;
31004;SDS011;17676;52.254;4.490;2023-01-19T14:08:13;3.50;;;0.40;;
31004;SDS011;17676;52.254;4.490;2023-01-19T14:15:39;3.13;;;0.30;;
31004;SDS011;17676;52.254;4.490;2023-01-19T14:20:33;1.93;;;0.30;;
31004;SDS011;17676;52.254;4.490;2023-01-19T14:23:01;3.67;;;0.10;;
31004;SDS011;17676;52.254;4.490;2023-01-19T14:25:27;4.90;;;0.20;;
31004;SDS011;17676;52.254;4.490;2023-01-19T14:30:36;4.17;;;0.30;;
31004;SDS011;17676;52.254;4.490;2023-01-19T14:33:02;6.73;;;0.40;;
31004;SDS011;17676;52.254;4.490;2023-01-19T14:35:27;2.10;;;0.20;;
31004;SDS011;17676;52.254;4.490;2023-01-19T14:37:54;3.40;;;0.20;;
31004;SDS011;17676;52.254;4.490;2023-01-19T14:40:20;0.57;;;0.10;;
31004;SDS011;17676;52.254;4.490;2023-01-19T14:45:21;1.47;;;0.20;;
31004;SDS011;17676;52.254;4.490;2023-01-19T14:50:20;4.43;;;0.20;;
31004;SDS011;17676;52.254;4.490;2023-01-19T14:58:03;3.90;;;0.20;;
31004;SDS011;17676;52.254;4.490;2023-01-19T15:00:32;1.43;;;0.20;;
31004;SDS011;17676;52.254;4.490;2023-01-19T15:02:59;5.00;;;0.33;;
31004;SDS011;17676;52.254;4.490;2023-01-19T15:05:24;4.40;;;0.20;;
31004;SDS011;17676;52.254;4.490;2023-01-19T15:07:49;3.30;;;0.30;;
31004;SDS011;17676;52.254;4.490;2023-01-19T15:10:18;3.27;;;0.20;;
31004;SDS011;17676;52.254;4.490;2023-01-19T15:12:45;3.00;;;0.20;;
31004;SDS011;17676;52.254;4.490;2023-01-19T15:17:59;6.23;;;0.63;;
31004;SDS011;17676;52.254;4.490;2023-01-19T15:20:25;6.50;;;0.33;;
31004;SDS011;17676;52.254;4.490;2023-01-19T15:22:51;7.53;;;0.50;;
31004;SDS011;17676;52.254;4.490;2023-01-19T15:25:17;4.23;;;0.40;;
31004;SDS011;17676;52.254;4.490;2023-01-19T15:27:43;4.40;;;0.20;;
31004;SDS011;17676;52.254;4.490;2023-01-19T15:30:19;3.77;;;0.20;;
31004;SDS011;17676;52.254;4.490;2023-01-19T15:32:45;3.20;;;0.30;;
31004;SDS011;17676;52.254;4.490;2023-01-19T15:35:13;6.40;;;0.30;;
31004;SDS011;17676;52.254;4.490;2023-01-19T15:37:39;2.70;;;0.20;;
31004;SDS011;17676;52.254;4.490;2023-01-19T15:40:06;3.53;;;0.27;;
31004;SDS011;17676;52.254;4.490;2023-01-19T15:42:31;5.10;;;0.20;;
31004;SDS011;17676;52.254;4.490;2023-01-19T15:44:57;5.40;;;0.20;;
31004;SDS011;17676;52.254;4.490;2023-01-19T15:47:23;2.47;;;0.30;;
31004;SDS011;17676;52.254;4.490;2023-01-19T15:49:48;4.03;;;0.10;;
31004;SDS011;17676;52.254;4.490;2023-01-19T15:52:13;8.73;;;0.20;;
31004;SDS011;17676;52.254;4.490;2023-01-19T15:54:39;2.93;;;0.20;;
31004;SDS011;17676;52.254;4.490;2023-01-19T15:57:04;3.87;;;0.37;;
31004;SDS011;17676;52.254;4.490;2023-01-19T15:59:29;3.17;;;0.30;;
31004;SDS011;17676;52.254;4.490;2023-01-19T16:01:54;5.70;;;0.20;;
31004;SDS011;17676;52.254;4.490;2023-01-19T16:04:20;3.27;;;0.30;;
31004;SDS011;17676;52.254;4.490;2023-01-19T16:06:45;5.67;;;0.20;;
31004;SDS011;17676;52.254;4.490;2023-01-19T16:09:11;7.63;;;0.30;;
31004;SDS011;17676;52.254;4.490;2023-01-19T16:11:40;6.23;;;0.53;;
31004;SDS011;17676;52.254;4.490;2023-01-19T16:14:06;6.63;;;0.30;;
31004;SDS011;17676;52.254;4.490;2023-01-19T16:16:31;2.13;;;0.43;;
31004;SDS011;17676;52.254;4.490;2023-01-19T16:18:57;4.17;;;0.37;;
31004;SDS011;17676;52.254;4.490;2023-01-19T16:21:27;6.07;;;0.43;;
31004;SDS011;17676;52.254;4.490;2023-01-19T16:23:52;5.30;;;0.40;;
31004;SDS011;17676;52.254;4.490;2023-01-19T16:28:49;4.87;;;0.67;;
31004;SDS011;17676;52.254;4.490;2023-01-19T16:31:15;2.00;;;0.20;;
31004;SDS011;17676;52.254;4.490;2023-01-19T16:33:40;7.03;;;0.20;;
31004;SDS011;17676;52.254;4.490;2023-01-19T16:38:43;5.87;;;0.37;;
31004;SDS011;17676;52.254;4.490;2023-01-19T16:41:09;8.70;;;0.53;;
31004;SDS011;17676;52.254;4.490;2023-01-19T16:43:34;3.83;;;0.40;;
31004;SDS011;17676;52.254;4.490;2023-01-19T16:46:00;1.13;;;0.20;;
31004;SDS011;17676;52.254;4.490;2023-01-19T16:48:26;5.83;;;0.37;;
31004;SDS011;17676;52.254;4.490;2023-01-19T16:51:02;5.27;;;0.40;;
31004;SDS011;17676;52.254;4.490;2023-01-19T16:53:28;5.10;;;0.37;;
31004;SDS011;17676;52.254;4.490;2023-01-19T16:55:54;4.73;;;0.83;;
31004;SDS011;17676;52.254;4.490;2023-01-19T16:58:19;2.90;;;0.70;;
31004;SDS011;17676;52.254;4.490;2023-01-19T17:00:44;3.97;;;0.77;;
31004;SDS011;17676;52.254;4.490;2023-01-19T17:03:10;6.27;;;0.30;;